Impacts TAF Board
For situational awareness. Not to be used for flight planning purposes.
IDs:

KBFM - Mobile/Downtown Arpt, AL, US

Issued at 0038 UTC 06 Dec 2020
Updated at 0229 UTC 06 Dec 2020
Potential Impact None Slight Moderate High
Time0153Z 06/03Z 06/04Z 06/05Z 06/06Z 06/07Z 06/08Z 06/09Z 06/10Z 06/11Z 06/12Z 06/13Z 06/14Z 06/15Z>>
Type OBS PRVL PRVL PRVL PRVL PRVL PRVL PRVL PRVL PRVL PRVL PRVL PRVL PRVL
VIS 10 >6 >6 >6 >6 >6 >6 >6 >6 >6 >6 >6 >6 >6
CIG -- 250 250 250 250 250 250 250 250 250 250 250 250 250
Cover CLR BKN BKN BKN BKN BKN BKN BKN BKN BKN BKN BKN BKN BKN
FltCat VFR VFR VFR VFR VFR VFR VFR VFR VFR VFR VFR VFR VFR VFR
WX -- -- -- -- -- -- -- -- -- -- -- -- -- --
WDir 260 VRB VRB VRB VRB VRB VRB VRB VRB VRB VRB VRB VRB VRB
WSpd 4 3 3 3 3 3 3 3 3 3 3 3 3 3
WGst -- -- -- -- -- -- -- -- -- -- -- -- -- --
Raw TAF
KBFM 060038Z 0601/0624 VRB03KT P6SM BKN250
  FM061700 34005KT P6SM BKN120


Raw METAR
KBFM 060153Z 26004KT 10SM CLR 12/07 A3017 RMK AO2 SLP217 T01170067
KBFM 060053Z 23004KT 10SM CLR 12/08 A3016 RMK AO2 SLP214 T01170078
KBFM 052353Z 23003KT 10SM CLR 11/08 A3015 RMK AO2 SLP209 T01110078 10161 20111 53003

METAR Board
Radar Display
Forecast Discussion
For situational awareness. Not to be used for flight planning purposes.